sensor_id;sensor_type;location;lat;lon;timestamp;pressure;altitude;pressure_sealevel;temperature;humidity
71476;BME280;59286;59.274;17.974;2022-10-22T00:00:41;101014.22;;;6.71;89.92
71476;BME280;59286;59.274;17.974;2022-10-22T00:03:06;101022.53;;;6.73;90.21
71476;BME280;59286;59.274;17.974;2022-10-22T00:05:31;100981.34;;;6.50;90.04
71476;BME280;59286;59.274;17.974;2022-10-22T00:07:57;101010.53;;;6.72;89.95
71476;BME280;59286;59.274;17.974;2022-10-22T00:10:22;101014.22;;;6.71;89.75
71476;BME280;59286;59.274;17.974;2022-10-22T00:12:47;101016.81;;;6.76;89.50
71476;BME280;59286;59.274;17.974;2022-10-22T00:15:13;101037.91;;;6.84;89.35
71476;BME280;59286;59.274;17.974;2022-10-22T00:17:38;101026.47;;;6.85;89.01
71476;BME280;59286;59.274;17.974;2022-10-22T00:20:04;101029.06;;;6.85;88.92
71476;BME280;59286;59.274;17.974;2022-10-22T00:22:30;101019.16;;;6.77;88.82
71476;BME280;59286;59.274;17.974;2022-10-22T00:24:55;101005.06;;;6.68;89.14
71476;BME280;59286;59.274;17.974;2022-10-22T00:27:21;101024.09;;;6.74;89.42
71476;BME280;59286;59.274;17.974;2022-10-22T00:29:47;101020.97;;;6.72;89.48
71476;BME280;59286;59.274;17.974;2022-10-22T00:32:13;101018.34;;;6.67;89.19
71476;BME280;59286;59.274;17.974;2022-10-22T00:34:39;100996.19;;;6.59;89.39
71476;BME280;59286;59.274;17.974;2022-10-22T00:37:05;101010.28;;;6.68;89.35
71476;BME280;59286;59.274;17.974;2022-10-22T00:39:30;101006.34;;;6.66;89.29
71476;BME280;59286;59.274;17.974;2022-10-22T00:41:56;101003.25;;;6.69;89.37
71476;BME280;59286;59.274;17.974;2022-10-22T00:47:27;100985.53;;;6.56;89.02
71476;BME280;59286;59.274;17.974;2022-10-22T00:49:56;100992.28;;;6.57;89.12
71476;BME280;59286;59.274;17.974;2022-10-22T00:52:22;100997.00;;;6.60;88.59
71476;BME280;59286;59.274;17.974;2022-10-22T00:54:48;100973.00;;;6.43;88.61
71476;BME280;59286;59.274;17.974;2022-10-22T00:57:15;100989.41;;;6.48;88.68
71476;BME280;59286;59.274;17.974;2022-10-22T00:59:41;101000.88;;;6.57;88.79
71476;BME280;59286;59.274;17.974;2022-10-22T01:02:07;100998.81;;;6.59;88.49
71476;BME280;59286;59.274;17.974;2022-10-22T01:04:32;100966.22;;;6.42;88.66
71476;BME280;59286;59.274;17.974;2022-10-22T01:06:57;100997.50;;;6.57;88.45
71476;BME280;59286;59.274;17.974;2022-10-22T01:09:35;100986.53;;;6.50;88.73
71476;BME280;59286;59.274;17.974;2022-10-22T01:12:09;100991.00;;;6.54;88.48
71476;BME280;59286;59.274;17.974;2022-10-22T01:17:21;100977.16;;;6.39;88.37
71476;BME280;59286;59.274;17.974;2022-10-22T01:20:17;100994.09;;;6.51;88.17
71476;BME280;59286;59.274;17.974;2022-10-22T01:23:11;100982.88;;;6.46;88.20
71476;BME280;59286;59.274;17.974;2022-10-22T01:26:05;100969.81;;;6.31;88.71
71476;BME280;59286;59.274;17.974;2022-10-22T01:31:21;100972.94;;;6.28;89.30
71476;BME280;59286;59.274;17.974;2022-10-22T01:33:49;100978.16;;;6.38;88.99
71476;BME280;59286;59.274;17.974;2022-10-22T01:36:16;100955.50;;;6.23;89.39
71476;BME280;59286;59.274;17.974;2022-10-22T01:38:43;100975.81;;;6.36;89.49
71476;BME280;59286;59.274;17.974;2022-10-22T01:41:10;100957.84;;;6.25;89.87
71476;BME280;59286;59.274;17.974;2022-10-22T01:43:35;100972.72;;;6.39;89.63
71476;BME280;59286;59.274;17.974;2022-10-22T01:46:02;100957.88;;;6.35;89.31
71476;BME280;59286;59.274;17.974;2022-10-22T01:48:50;100965.19;;;6.43;89.17
71476;BME280;59286;59.274;17.974;2022-10-22T01:51:48;100965.72;;;6.45;88.92
71476;BME280;59286;59.274;17.974;2022-10-22T01:54:43;100937.31;;;6.28;89.05
71476;BME280;59286;59.274;17.974;2022-10-22T01:57:20;100954.50;;;6.39;89.06
71476;BME280;59286;59.274;17.974;2022-10-22T02:00:09;100954.75;;;6.38;89.28
71476;BME280;59286;59.274;17.974;2022-10-22T02:03:09;100930.25;;;6.19;89.65
71476;BME280;59286;59.274;17.974;2022-10-22T02:05:44;100947.97;;;6.32;89.69
71476;BME280;59286;59.274;17.974;2022-10-22T02:08:26;100947.72;;;6.38;89.63
71476;BME280;59286;59.274;17.974;2022-10-22T02:10:53;100940.69;;;6.39;89.54
71476;BME280;59286;59.274;17.974;2022-10-22T02:13:24;100948.00;;;6.47;89.36
71476;BME280;59286;59.274;17.974;2022-10-22T02:15:51;100929.22;;;6.40;89.03
71476;BME280;59286;59.274;17.974;2022-10-22T02:18:18;100907.88;;;6.33;88.85
71476;BME280;59286;59.274;17.974;2022-10-22T02:20:46;100939.16;;;6.53;89.11
71476;BME280;59286;59.274;17.974;2022-10-22T02:23:13;100944.63;;;6.56;89.27
71476;BME280;59286;59.274;17.974;2022-10-22T02:25:41;100948.00;;;6.57;89.10
71476;BME280;59286;59.274;17.974;2022-10-22T02:28:24;100950.38;;;6.63;89.14
71476;BME280;59286;59.274;17.974;2022-10-22T02:30:55;100942.31;;;6.65;88.77
71476;BME280;59286;59.274;17.974;2022-10-22T02:33:29;100940.72;;;6.64;88.92
71476;BME280;59286;59.274;17.974;2022-10-22T02:35:57;100938.63;;;6.66;88.75
71476;BME280;59286;59.274;17.974;2022-10-22T02:38:26;100924.06;;;6.60;88.92
71476;BME280;59286;59.274;17.974;2022-10-22T02:40:52;100923.53;;;6.63;88.98
71476;BME280;59286;59.274;17.974;2022-10-22T02:43:18;100919.63;;;6.60;88.71
71476;BME280;59286;59.274;17.974;2022-10-22T02:45:44;100937.34;;;6.73;88.55
71476;BME280;59286;59.274;17.974;2022-10-22T02:48:10;100923.28;;;6.64;88.61
71476;BME280;59286;59.274;17.974;2022-10-22T02:50:35;100899.56;;;6.51;88.33
71476;BME280;59286;59.274;17.974;2022-10-22T02:53:00;100933.72;;;6.79;88.37
71476;BME280;59286;59.274;17.974;2022-10-22T02:55:26;100923.03;;;6.76;88.19
71476;BME280;59286;59.274;17.974;2022-10-22T02:57:51;100906.09;;;6.63;88.06
71476;BME280;59286;59.274;17.974;2022-10-22T03:00:17;100927.72;;;6.84;88.02
71476;BME280;59286;59.274;17.974;2022-10-22T03:02:42;100941.28;;;6.91;88.03
71476;BME280;59286;59.274;17.974;2022-10-22T03:05:08;100924.59;;;6.77;88.00
71476;BME280;59286;59.274;17.974;2022-10-22T03:07:34;100935.00;;;6.87;88.00
71476;BME280;59286;59.274;17.974;2022-10-22T03:09:59;100939.19;;;6.93;87.88
71476;BME280;59286;59.274;17.974;2022-10-22T03:12:24;100919.38;;;6.87;87.81
71476;BME280;59286;59.274;17.974;2022-10-22T03:14:50;100927.72;;;6.94;87.72
71476;BME280;59286;59.274;17.974;2022-10-22T03:17:15;100917.56;;;6.93;87.83
71476;BME280;59286;59.274;17.974;2022-10-22T03:19:40;100914.16;;;6.92;87.37
71476;BME280;59286;59.274;17.974;2022-10-22T03:22:24;100924.34;;;6.99;87.52
71476;BME280;59286;59.274;17.974;2022-10-22T03:24:53;100918.31;;;6.98;87.74
71476;BME280;59286;59.274;17.974;2022-10-22T03:27:20;100911.56;;;6.87;87.92
71476;BME280;59286;59.274;17.974;2022-10-22T03:29:48;100918.59;;;6.92;87.92
71476;BME280;59286;59.274;17.974;2022-10-22T03:32:15;100917.56;;;6.93;88.03
71476;BME280;59286;59.274;17.974;2022-10-22T03:34:40;100901.69;;;6.84;88.07
71476;BME280;59286;59.274;17.974;2022-10-22T03:37:05;100880.03;;;6.73;87.89
71476;BME280;59286;59.274;17.974;2022-10-22T03:39:32;100902.97;;;6.97;88.07
71476;BME280;59286;59.274;17.974;2022-10-22T03:41:59;100892.03;;;6.90;87.42
71476;BME280;59286;59.274;17.974;2022-10-22T03:44:25;100891.22;;;6.94;87.60
71476;BME280;59286;59.274;17.974;2022-10-22T03:46:51;100905.03;;;7.05;87.49
71476;BME280;59286;59.274;17.974;2022-10-22T03:49:17;100888.88;;;6.98;87.74
71476;BME280;59286;59.274;17.974;2022-10-22T03:51:42;100910.22;;;7.15;87.52
71476;BME280;59286;59.274;17.974;2022-10-22T03:54:08;100893.53;;;7.11;87.05
71476;BME280;59286;59.274;17.974;2022-10-22T03:56:33;100904.75;;;7.21;87.31
71476;BME280;59286;59.274;17.974;2022-10-22T03:59:00;100902.66;;;7.23;87.04
71476;BME280;59286;59.274;17.974;2022-10-22T04:01:27;100900.31;;;7.27;86.90
71476;BME280;59286;59.274;17.974;2022-10-22T04:03:53;100873.47;;;7.11;86.62
71476;BME280;59286;59.274;17.974;2022-10-22T04:06:18;100894.03;;;7.28;86.64
71476;BME280;59286;59.274;17.974;2022-10-22T04:08:44;100879.72;;;7.20;86.69
71476;BME280;59286;59.274;17.974;2022-10-22T04:11:11;100870.34;;;7.19;86.51
71476;BME280;59286;59.274;17.974;2022-10-22T04:13:37;100892.47;;;7.32;86.55
71476;BME280;59286;59.274;17.974;2022-10-22T04:16:17;100893.78;;;7.34;86.31
71476;BME280;59286;59.274;17.974;2022-10-22T04:18:44;100902.13;;;7.36;86.33
71476;BME280;59286;59.274;17.974;2022-10-22T04:21:11;100892.75;;;7.30;86.42
71476;BME280;59286;59.274;17.974;2022-10-22T04:23:37;100857.84;;;7.11;86.08
71476;BME280;59286;59.274;17.974;2022-10-22T04:26:05;100884.38;;;7.33;86.12
71476;BME280;59286;59.274;17.974;2022-10-22T04:28:32;100878.63;;;7.31;86.04
71476;BME280;59286;59.274;17.974;2022-10-22T04:30:57;100877.88;;;7.31;86.02
71476;BME280;59286;59.274;17.974;2022-10-22T04:33:23;100859.38;;;7.22;86.27
71476;BME280;59286;59.274;17.974;2022-10-22T04:35:48;100888.56;;;7.34;86.08
71476;BME280;59286;59.274;17.974;2022-10-22T04:38:14;100873.44;;;7.31;85.97
71476;BME280;59286;59.274;17.974;2022-10-22T04:40:40;100877.59;;;7.37;85.96
71476;BME280;59286;59.274;17.974;2022-10-22T04:43:06;100847.66;;;7.25;85.59
71476;BME280;59286;59.274;17.974;2022-10-22T04:45:35;100875.47;;;7.49;85.55
71476;BME280;59286;59.274;17.974;2022-10-22T04:48:00;100881.69;;;7.53;85.61
71476;BME280;59286;59.274;17.974;2022-10-22T04:50:26;100843.69;;;7.37;85.17
71476;BME280;59286;59.274;17.974;2022-10-22T04:52:51;100867.63;;;7.54;85.18
71476;BME280;59286;59.274;17.974;2022-10-22T04:55:16;100859.03;;;7.49;85.04
71476;BME280;59286;59.274;17.974;2022-10-22T04:57:42;100857.75;;;7.51;85.08
71476;BME280;59286;59.274;17.974;2022-10-22T05:00:07;100849.97;;;7.36;85.35
71476;BME280;59286;59.274;17.974;2022-10-22T05:02:33;100837.44;;;7.33;85.60
71476;BME280;59286;59.274;17.974;2022-10-22T05:04:58;100865.03;;;7.49;85.27
71476;BME280;59286;59.274;17.974;2022-10-22T05:07:24;100860.06;;;7.53;85.24
71476;BME280;59286;59.274;17.974;2022-10-22T05:09:49;100866.84;;;7.54;84.77
71476;BME280;59286;59.274;17.974;2022-10-22T05:12:15;100850.44;;;7.48;85.03
71476;BME280;59286;59.274;17.974;2022-10-22T05:14:40;100839.47;;;7.51;84.72
71476;BME280;59286;59.274;17.974;2022-10-22T05:17:05;100846.44;;;7.61;84.67
71476;BME280;59286;59.274;17.974;2022-10-22T05:19:31;100840.19;;;7.62;84.46
71476;BME280;59286;59.274;17.974;2022-10-22T05:21:58;100822.00;;;7.47;84.85
71476;BME280;59286;59.274;17.974;2022-10-22T05:24:25;100822.25;;;7.50;84.57
71476;BME280;59286;59.274;17.974;2022-10-22T05:26:52;100839.66;;;7.65;84.36
71476;BME280;59286;59.274;17.974;2022-10-22T05:29:18;100831.84;;;7.65;84.15
71476;BME280;59286;59.274;17.974;2022-10-22T05:31:44;100809.72;;;7.52;84.21
71476;BME280;59286;59.274;17.974;2022-10-22T05:34:09;100831.31;;;7.63;83.94
71476;BME280;59286;59.274;17.974;2022-10-22T05:36:35;100835.97;;;7.71;83.72
71476;BME280;59286;59.274;17.974;2022-10-22T05:39:00;100834.13;;;7.76;83.92
71476;BME280;59286;59.274;17.974;2022-10-22T05:41:27;100835.13;;;7.85;83.55
71476;BME280;59286;59.274;17.974;2022-10-22T05:43:56;100812.00;;;7.69;83.46
71476;BME280;59286;59.274;17.974;2022-10-22T05:46:24;100831.00;;;7.74;83.63
71476;BME280;59286;59.274;17.974;2022-10-22T05:48:51;100831.47;;;7.81;83.43
71476;BME280;59286;59.274;17.974;2022-10-22T05:51:18;100823.13;;;7.79;83.48
71476;BME280;59286;59.274;17.974;2022-10-22T05:53:44;100821.59;;;7.78;83.29
71476;BME280;59286;59.274;17.974;2022-10-22T05:56:14;100828.31;;;7.90;82.92
71476;BME280;59286;59.274;17.974;2022-10-22T05:58:41;100815.31;;;7.84;83.15
71476;BME280;59286;59.274;17.974;2022-10-22T06:01:14;100826.44;;;7.95;82.74
71476;BME280;59286;59.274;17.974;2022-10-22T06:03:40;100801.00;;;7.77;82.98
71476;BME280;59286;59.274;17.974;2022-10-22T06:08:40;100807.72;;;7.88;82.81
71476;BME280;59286;59.274;17.974;2022-10-22T06:11:06;100821.75;;;7.97;82.63
71476;BME280;59286;59.274;17.974;2022-10-22T06:13:31;100808.41;;;7.99;82.86
71476;BME280;59286;59.274;17.974;2022-10-22T06:15:57;100815.47;;;7.98;82.46
71476;BME280;59286;59.274;17.974;2022-10-22T06:18:22;100799.09;;;7.88;82.43
71476;BME280;59286;59.274;17.974;2022-10-22T06:20:48;100815.97;;;8.00;82.45
71476;BME280;59286;59.274;17.974;2022-10-22T06:23:13;100799.31;;;7.91;82.62
71476;BME280;59286;59.274;17.974;2022-10-22T06:25:39;100807.38;;;8.00;82.43
71476;BME280;59286;59.274;17.974;2022-10-22T06:28:05;100782.34;;;7.94;81.82
71476;BME280;59286;59.274;17.974;2022-10-22T06:30:30;100787.75;;;8.02;81.77
71476;BME280;59286;59.274;17.974;2022-10-22T06:32:55;100813.00;;;8.17;81.58
71476;BME280;59286;59.274;17.974;2022-10-22T06:35:21;100792.97;;;8.07;81.79
71476;BME280;59286;59.274;17.974;2022-10-22T06:37:46;100799.19;;;8.11;81.92
71476;BME280;59286;59.274;17.974;2022-10-22T06:40:12;100810.06;;;8.23;81.54
71476;BME280;59286;59.274;17.974;2022-10-22T06:42:37;100792.13;;;8.17;81.75
71476;BME280;59286;59.274;17.974;2022-10-22T06:45:03;100799.38;;;8.25;81.18
71476;BME280;59286;59.274;17.974;2022-10-22T06:47:28;100793.91;;;8.21;80.99
71476;BME280;59286;59.274;17.974;2022-10-22T06:49:55;100807.09;;;8.40;81.29
71476;BME280;59286;59.274;17.974;2022-10-22T06:52:21;100781.06;;;8.30;80.78
71476;BME280;59286;59.274;17.974;2022-10-22T06:54:46;100790.38;;;8.41;80.93
71476;BME280;59286;59.274;17.974;2022-10-22T06:57:12;100817.88;;;8.62;80.71
71476;BME280;59286;59.274;17.974;2022-10-22T06:59:37;100797.59;;;8.49;80.21
71476;BME280;59286;59.274;17.974;2022-10-22T07:02:02;100817.69;;;8.53;80.44
71476;BME280;59286;59.274;17.974;2022-10-22T07:04:27;100805.13;;;8.55;80.47
71476;BME280;59286;59.274;17.974;2022-10-22T07:06:54;100802.31;;;8.52;80.41
71476;BME280;59286;59.274;17.974;2022-10-22T07:09:19;100793.97;;;8.50;80.14
71476;BME280;59286;59.274;17.974;2022-10-22T07:11:45;100802.25;;;8.57;80.83
71476;BME280;59286;59.274;17.974;2022-10-22T07:14:11;100812.13;;;8.60;80.58
71476;BME280;59286;59.274;17.974;2022-10-22T07:16:37;100811.53;;;8.68;80.37
71476;BME280;59286;59.274;17.974;2022-10-22T07:19:03;100823.53;;;8.74;80.15
71476;BME280;59286;59.274;17.974;2022-10-22T07:21:30;100800.59;;;8.66;79.64
71476;BME280;59286;59.274;17.974;2022-10-22T07:23:55;100819.75;;;8.85;80.03
71476;BME280;59286;59.274;17.974;2022-10-22T07:26:21;100813.50;;;8.81;80.08
71476;BME280;59286;59.274;17.974;2022-10-22T07:28:49;100792.69;;;8.71;80.13
71476;BME280;59286;59.274;17.974;2022-10-22T07:31:16;100825.69;;;8.91;80.07
71476;BME280;59286;59.274;17.974;2022-10-22T07:33:42;100809.28;;;8.85;80.08
71476;BME280;59286;59.274;17.974;2022-10-22T07:36:10;100808.22;;;8.86;79.92
71476;BME280;59286;59.274;17.974;2022-10-22T07:38:36;100820.13;;;8.97;80.38
71476;BME280;59286;59.274;17.974;2022-10-22T07:41:02;100800.56;;;8.95;80.50
71476;BME280;59286;59.274;17.974;2022-10-22T07:43:28;100814.38;;;9.00;80.08
71476;BME280;59286;59.274;17.974;2022-10-22T07:45:53;100818.72;;;9.10;80.16
71476;BME280;59286;59.274;17.974;2022-10-22T07:48:22;100801.72;;;9.07;79.81
71476;BME280;59286;59.274;17.974;2022-10-22T07:50:48;100821.19;;;9.20;80.76
71476;BME280;59286;59.274;17.974;2022-10-22T07:53:16;100796.50;;;9.07;81.00
71476;BME280;59286;59.274;17.974;2022-10-22T07:55:41;100796.44;;;9.12;81.21
71476;BME280;59286;59.274;17.974;2022-10-22T07:58:06;100819.25;;;9.30;81.26
71476;BME280;59286;59.274;17.974;2022-10-22T08:00:32;100803.16;;;9.18;81.30
71476;BME280;59286;59.274;17.974;2022-10-22T08:02:57;100808.34;;;9.23;81.27
71476;BME280;59286;59.274;17.974;2022-10-22T08:05:23;100800.22;;;9.25;81.45
71476;BME280;59286;59.274;17.974;2022-10-22T08:07:48;100824.00;;;9.28;81.38
71476;BME280;59286;59.274;17.974;2022-10-22T08:10:13;100819.28;;;9.25;81.46
71476;BME280;59286;59.274;17.974;2022-10-22T08:12:40;100807.28;;;9.24;81.36
71476;BME280;59286;59.274;17.974;2022-10-22T08:15:05;100811.66;;;9.29;81.36
71476;BME280;59286;59.274;17.974;2022-10-22T08:17:31;100798.16;;;9.22;81.39
71476;BME280;59286;59.274;17.974;2022-10-22T08:19:56;100797.44;;;9.16;81.05
71476;BME280;59286;59.274;17.974;2022-10-22T08:22:22;100799.97;;;9.21;81.58
71476;BME280;59286;59.274;17.974;2022-10-22T08:24:47;100814.28;;;9.29;81.91
71476;BME280;59286;59.274;17.974;2022-10-22T08:27:13;100780.25;;;9.10;82.05
71476;BME280;59286;59.274;17.974;2022-10-22T08:29:39;100793.53;;;9.14;81.47
71476;BME280;59286;59.274;17.974;2022-10-22T08:32:04;100804.69;;;9.24;81.05
71476;BME280;59286;59.274;17.974;2022-10-22T08:34:30;100807.22;;;9.29;80.84
71476;BME280;59286;59.274;17.974;2022-10-22T08:36:55;100806.41;;;9.34;81.26
71476;BME280;59286;59.274;17.974;2022-10-22T08:39:21;100801.44;;;9.32;81.03
71476;BME280;59286;59.274;17.974;2022-10-22T08:49:35;100796.44;;;9.36;79.98
71476;BME280;59286;59.274;17.974;2022-10-22T08:52:01;100809.31;;;9.51;80.23
71476;BME280;59286;59.274;17.974;2022-10-22T08:54:48;100806.34;;;9.57;80.22
71476;BME280;59286;59.274;17.974;2022-10-22T08:57:38;100805.78;;;9.60;80.06
71476;BME280;59286;59.274;17.974;2022-10-22T09:00:29;100792.97;;;9.59;80.20
71476;BME280;59286;59.274;17.974;2022-10-22T09:06:04;100817.75;;;9.66;79.78
71476;BME280;59286;59.274;17.974;2022-10-22T09:08:26;100779.25;;;9.48;80.00
71476;BME280;59286;59.274;17.974;2022-10-22T09:11:00;100796.81;;;9.66;80.28
71476;BME280;59286;59.274;17.974;2022-10-22T09:13:27;100787.13;;;9.67;80.42
71476;BME280;59286;59.274;17.974;2022-10-22T09:15:55;100779.41;;;9.57;79.47
71476;BME280;59286;59.274;17.974;2022-10-22T09:20:57;100789.22;;;9.84;79.72
71476;BME280;59286;59.274;17.974;2022-10-22T09:23:51;100793.13;;;9.86;79.78
71476;BME280;59286;59.274;17.974;2022-10-22T09:26:15;100786.41;;;9.80;79.40
71476;BME280;59286;59.274;17.974;2022-10-22T09:28:41;100786.13;;;9.82;79.15
71476;BME280;59286;59.274;17.974;2022-10-22T09:31:11;100801.25;;;9.85;79.12
71476;BME280;59286;59.274;17.974;2022-10-22T09:33:37;100803.03;;;9.89;79.47
71476;BME280;59286;59.274;17.974;2022-10-22T09:36:03;100791.78;;;9.89;79.65
71476;BME280;59286;59.274;17.974;2022-10-22T09:38:38;100795.09;;;9.94;79.16
71476;BME280;59286;59.274;17.974;2022-10-22T09:41:03;100794.88;;;9.91;78.42
71476;BME280;59286;59.274;17.974;2022-10-22T09:43:30;100797.91;;;9.98;78.71
71476;BME280;59286;59.274;17.974;2022-10-22T09:45:59;100798.69;;;9.98;78.52
71476;BME280;59286;59.274;17.974;2022-10-22T09:48:31;100794.38;;;9.89;78.66
71476;BME280;59286;59.274;17.974;2022-10-22T09:51:22;100794.59;;;9.92;78.95
71476;BME280;59286;59.274;17.974;2022-10-22T09:53:57;100791.72;;;9.94;78.44
71476;BME280;59286;59.274;17.974;2022-10-22T09:58:56;100780.03;;;9.86;78.61
71476;BME280;59286;59.274;17.974;2022-10-22T10:01:32;100782.88;;;9.90;78.92
71476;BME280;59286;59.274;17.974;2022-10-22T10:04:06;100759.94;;;9.82;78.76
71476;BME280;59286;59.274;17.974;2022-10-22T10:06:33;100780.16;;;9.95;78.72
71476;BME280;59286;59.274;17.974;2022-10-22T10:08:58;100746.06;;;9.81;78.90
71476;BME280;59286;59.274;17.974;2022-10-22T10:19:40;100747.75;;;9.91;78.82
71476;BME280;59286;59.274;17.974;2022-10-22T10:22:28;100759.91;;;10.00;78.64
71476;BME280;59286;59.274;17.974;2022-10-22T10:25:30;100750.09;;;9.92;78.90
71476;BME280;59286;59.274;17.974;2022-10-22T10:31:32;100745.84;;;9.96;78.56
71476;BME280;59286;59.274;17.974;2022-10-22T10:39:11;100725.66;;;9.97;78.29
71476;BME280;59286;59.274;17.974;2022-10-22T10:42:18;100741.22;;;10.07;78.36
71476;BME280;59286;59.274;17.974;2022-10-22T10:50:30;100716.75;;;9.98;78.14
71476;BME280;59286;59.274;17.974;2022-10-22T10:56:35;100691.28;;;9.85;78.53
71476;BME280;59286;59.274;17.974;2022-10-22T11:07:17;100719.50;;;9.55;81.94
71476;BME280;59286;59.274;17.974;2022-10-22T11:09:54;100710.84;;;9.55;83.25
71476;BME280;59286;59.274;17.974;2022-10-22T11:12:30;100717.38;;;9.57;83.39
71476;BME280;59286;59.274;17.974;2022-10-22T11:15:34;100702.88;;;9.46;83.50
71476;BME280;59286;59.274;17.974;2022-10-22T11:18:22;100703.66;;;9.47;84.26
71476;BME280;59286;59.274;17.974;2022-10-22T11:23:17;100681.19;;;9.27;85.13
71476;BME280;59286;59.274;17.974;2022-10-22T11:25:47;100685.28;;;9.33;85.63
71476;BME280;59286;59.274;17.974;2022-10-22T11:30:47;100662.81;;;9.32;85.69
71476;BME280;59286;59.274;17.974;2022-10-22T11:33:17;100692.34;;;9.51;86.18
71476;BME280;59286;59.274;17.974;2022-10-22T11:35:46;100672.28;;;9.47;86.25
71476;BME280;59286;59.274;17.974;2022-10-22T11:38:24;100675.50;;;9.57;86.47
71476;BME280;59286;59.274;17.974;2022-10-22T11:40:56;100657.06;;;9.49;86.53
71476;BME280;59286;59.274;17.974;2022-10-22T11:43:31;100663.75;;;9.55;86.03
71476;BME280;59286;59.274;17.974;2022-10-22T11:46:25;100653.03;;;9.56;86.14
71476;BME280;59286;59.274;17.974;2022-10-22T11:49:22;100678.78;;;9.82;86.96
71476;BME280;59286;59.274;17.974;2022-10-22T11:51:48;100677.25;;;9.81;85.48
71476;BME280;59286;59.274;17.974;2022-10-22T11:54:37;100649.94;;;9.68;85.55
71476;BME280;59286;59.274;17.974;2022-10-22T11:57:18;100672.13;;;9.89;85.73
71476;BME280;59286;59.274;17.974;2022-10-22T12:02:23;100653.59;;;9.86;85.43
71476;BME280;59286;59.274;17.974;2022-10-22T12:04:56;100653.78;;;9.89;85.42
71476;BME280;59286;59.274;17.974;2022-10-22T12:07:55;100632.25;;;9.78;84.66
71476;BME280;59286;59.274;17.974;2022-10-22T12:10:25;100626.53;;;9.76;85.30
71476;BME280;59286;59.274;17.974;2022-10-22T12:12:54;100614.50;;;9.75;85.06
71476;BME280;59286;59.274;17.974;2022-10-22T12:15:30;100636.34;;;9.98;84.41
71476;BME280;59286;59.274;17.974;2022-10-22T12:17:59;100632.19;;;9.97;84.38
71476;BME280;59286;59.274;17.974;2022-10-22T12:20:25;100638.59;;;10.05;84.04
71476;BME280;59286;59.274;17.974;2022-10-22T12:22:51;100621.03;;;9.92;84.84
71476;BME280;59286;59.274;17.974;2022-10-22T12:25:21;100649.56;;;10.07;84.50
71476;BME280;59286;59.274;17.974;2022-10-22T12:27:53;100632.00;;;9.94;84.48
71476;BME280;59286;59.274;17.974;2022-10-22T12:30:25;100632.00;;;9.94;84.70
71476;BME280;59286;59.274;17.974;2022-10-22T12:32:55;100630.63;;;9.96;85.19
71476;BME280;59286;59.274;17.974;2022-10-22T12:35:24;100628.69;;;10.02;85.05
71476;BME280;59286;59.274;17.974;2022-10-22T12:37:55;100639.31;;;10.10;84.67
71476;BME280;59286;59.274;17.974;2022-10-22T12:40:28;100634.84;;;10.11;84.61
71476;BME280;59286;59.274;17.974;2022-10-22T12:42:57;100592.59;;;9.85;84.25
71476;BME280;59286;59.274;17.974;2022-10-22T12:45:27;100634.56;;;10.12;84.74
71476;BME280;59286;59.274;17.974;2022-10-22T12:47:58;100637.38;;;10.16;84.77
71476;BME280;59286;59.274;17.974;2022-10-22T12:50:33;100637.28;;;10.21;84.83
71476;BME280;59286;59.274;17.974;2022-10-22T12:53:04;100610.00;;;10.08;85.07
71476;BME280;59286;59.274;17.974;2022-10-22T12:55:30;100613.41;;;10.09;85.25
71476;BME280;59286;59.274;17.974;2022-10-22T12:57:55;100611.34;;;10.06;84.63
71476;BME280;59286;59.274;17.974;2022-10-22T13:00:27;100612.91;;;10.07;84.46
71476;BME280;59286;59.274;17.974;2022-10-22T13:02:53;100625.63;;;10.13;85.19
71476;BME280;59286;59.274;17.974;2022-10-22T13:07:50;100618.88;;;10.12;85.06
71476;BME280;59286;59.274;17.974;2022-10-22T13:10:24;100625.84;;;10.17;84.60
71476;BME280;59286;59.274;17.974;2022-10-22T13:12:53;100619.34;;;10.14;84.41
71476;BME280;59286;59.274;17.974;2022-10-22T13:18:19;100620.69;;;10.12;84.60
71476;BME280;59286;59.274;17.974;2022-10-22T13:20:59;100608.22;;;10.04;85.34
71476;BME280;59286;59.274;17.974;2022-10-22T13:23:28;100610.09;;;10.03;84.87
71476;BME280;59286;59.274;17.974;2022-10-22T13:26:10;100610.41;;;10.15;85.17
71476;BME280;59286;59.274;17.974;2022-10-22T13:28:37;100601.94;;;10.05;85.13
71476;BME280;59286;59.274;17.974;2022-10-22T13:31:30;100606.25;;;10.14;84.77
71476;BME280;59286;59.274;17.974;2022-10-22T13:34:03;100598.47;;;10.09;84.65
71476;BME280;59286;59.274;17.974;2022-10-22T13:36:30;100599.63;;;10.17;84.68
71476;BME280;59286;59.274;17.974;2022-10-22T13:38:56;100603.34;;;10.16;84.43
71476;BME280;59286;59.274;17.974;2022-10-22T13:43:47;100592.88;;;10.16;84.66
71476;BME280;59286;59.274;17.974;2022-10-22T13:46:13;100577.91;;;10.03;85.38
71476;BME280;59286;59.274;17.974;2022-10-22T13:48:38;100575.16;;;10.08;85.62
71476;BME280;59286;59.274;17.974;2022-10-22T13:51:12;100575.03;;;10.18;85.25
71476;BME280;59286;59.274;17.974;2022-10-22T13:53:38;100567.25;;;10.13;84.66
71476;BME280;59286;59.274;17.974;2022-10-22T13:56:04;100575.78;;;10.18;84.20
71476;BME280;59286;59.274;17.974;2022-10-22T13:58:29;100594.22;;;10.27;84.56
71476;BME280;59286;59.274;17.974;2022-10-22T14:00:56;100594.72;;;10.29;84.97
71476;BME280;59286;59.274;17.974;2022-10-22T14:03:26;100580.63;;;10.25;84.37
71476;BME280;59286;59.274;17.974;2022-10-22T14:05:53;100586.25;;;10.32;84.50
71476;BME280;59286;59.274;17.974;2022-10-22T14:08:20;100577.03;;;10.21;84.38
71476;BME280;59286;59.274;17.974;2022-10-22T14:10:46;100593.13;;;10.28;84.57
71476;BME280;59286;59.274;17.974;2022-10-22T14:13:13;100584.91;;;10.21;84.55
71476;BME280;59286;59.274;17.974;2022-10-22T14:15:39;100557.72;;;9.90;84.85